sensor_id;sensor_type;location;lat;lon;timestamp;temperature;humidity
46319;DHT22;32042;50.916;2.926;2022-07-23T00:00:52;14.90;99.90
46319;DHT22;32042;50.916;2.926;2022-07-23T00:03:18;15.00;99.90
46319;DHT22;32042;50.916;2.926;2022-07-23T00:05:44;15.00;99.90
46319;DHT22;32042;50.916;2.926;2022-07-23T00:08:09;14.90;99.90
46319;DHT22;32042;50.916;2.926;2022-07-23T00:10:36;14.90;99.90
46319;DHT22;32042;50.916;2.926;2022-07-23T00:13:02;14.90;99.90
46319;DHT22;32042;50.916;2.926;2022-07-23T00:15:28;14.90;99.90
46319;DHT22;32042;50.916;2.926;2022-07-23T00:17:54;14.90;99.90
46319;DHT22;32042;50.916;2.926;2022-07-23T00:20:19;14.80;99.90
46319;DHT22;32042;50.916;2.926;2022-07-23T00:22:53;14.80;99.90
46319;DHT22;32042;50.916;2.926;2022-07-23T00:25:19;14.70;99.90
46319;DHT22;32042;50.916;2.926;2022-07-23T00:27:45;14.60;99.90
46319;DHT22;32042;50.916;2.926;2022-07-23T00:30:12;14.50;99.90
46319;DHT22;32042;50.916;2.926;2022-07-23T00:32:53;14.50;99.90
46319;DHT22;32042;50.916;2.926;2022-07-23T00:35:20;14.50;99.90
46319;DHT22;32042;50.916;2.926;2022-07-23T00:37:46;14.50;99.90
46319;DHT22;32042;50.916;2.926;2022-07-23T00:40:12;14.60;99.90
46319;DHT22;32042;50.916;2.926;2022-07-23T00:42:39;14.60;99.90
46319;DHT22;32042;50.916;2.926;2022-07-23T00:45:05;14.60;99.90
46319;DHT22;32042;50.916;2.926;2022-07-23T00:47:32;14.60;99.90
46319;DHT22;32042;50.916;2.926;2022-07-23T00:49:58;14.50;99.90
46319;DHT22;32042;50.916;2.926;2022-07-23T00:52:23;14.50;99.90
46319;DHT22;32042;50.916;2.926;2022-07-23T00:54:50;14.50;99.90
46319;DHT22;32042;50.916;2.926;2022-07-23T00:57:16;14.40;99.90
46319;DHT22;32042;50.916;2.926;2022-07-23T00:59:42;14.40;99.90
46319;DHT22;32042;50.916;2.926;2022-07-23T01:02:08;14.40;99.90
46319;DHT22;32042;50.916;2.926;2022-07-23T01:04:34;14.40;99.90
46319;DHT22;32042;50.916;2.926;2022-07-23T01:07:00;14.40;99.90
46319;DHT22;32042;50.916;2.926;2022-07-23T01:09:26;14.30;99.90
46319;DHT22;32042;50.916;2.926;2022-07-23T01:11:54;14.30;99.90
46319;DHT22;32042;50.916;2.926;2022-07-23T01:14:20;14.20;99.90
46319;DHT22;32042;50.916;2.926;2022-07-23T01:16:47;14.20;99.90
46319;DHT22;32042;50.916;2.926;2022-07-23T01:19:14;14.20;99.90
46319;DHT22;32042;50.916;2.926;2022-07-23T01:21:42;14.10;99.90
46319;DHT22;32042;50.916;2.926;2022-07-23T01:24:08;14.10;99.90
46319;DHT22;32042;50.916;2.926;2022-07-23T01:26:35;14.10;99.90
46319;DHT22;32042;50.916;2.926;2022-07-23T01:29:01;14.10;99.90
46319;DHT22;32042;50.916;2.926;2022-07-23T01:31:28;14.10;99.90
46319;DHT22;32042;50.916;2.926;2022-07-23T01:33:53;14.10;99.90
46319;DHT22;32042;50.916;2.926;2022-07-23T01:36:19;14.20;99.90
46319;DHT22;32042;50.916;2.926;2022-07-23T01:38:45;14.20;99.90
46319;DHT22;32042;50.916;2.926;2022-07-23T01:41:11;14.20;99.90
46319;DHT22;32042;50.916;2.926;2022-07-23T01:43:36;14.20;99.90
46319;DHT22;32042;50.916;2.926;2022-07-23T01:46:02;14.20;99.90
46319;DHT22;32042;50.916;2.926;2022-07-23T01:48:28;14.30;99.90
46319;DHT22;32042;50.916;2.926;2022-07-23T01:50:53;14.20;99.90
46319;DHT22;32042;50.916;2.926;2022-07-23T01:53:19;14.20;99.90
46319;DHT22;32042;50.916;2.926;2022-07-23T01:55:45;14.00;99.90
46319;DHT22;32042;50.916;2.926;2022-07-23T01:58:11;14.00;99.90
46319;DHT22;32042;50.916;2.926;2022-07-23T02:00:36;14.00;99.90
46319;DHT22;32042;50.916;2.926;2022-07-23T02:03:02;14.00;99.90
46319;DHT22;32042;50.916;2.926;2022-07-23T02:05:29;13.90;99.90
46319;DHT22;32042;50.916;2.926;2022-07-23T02:07:55;13.90;99.90
46319;DHT22;32042;50.916;2.926;2022-07-23T02:10:22;13.90;99.90
46319;DHT22;32042;50.916;2.926;2022-07-23T02:12:48;13.80;99.90
46319;DHT22;32042;50.916;2.926;2022-07-23T02:15:13;13.80;99.90
46319;DHT22;32042;50.916;2.926;2022-07-23T02:17:39;13.80;99.90
46319;DHT22;32042;50.916;2.926;2022-07-23T02:20:06;13.80;99.90
46319;DHT22;32042;50.916;2.926;2022-07-23T02:22:32;13.80;99.90
46319;DHT22;32042;50.916;2.926;2022-07-23T02:24:58;13.80;99.90
46319;DHT22;32042;50.916;2.926;2022-07-23T02:27:24;13.70;99.90
46319;DHT22;32042;50.916;2.926;2022-07-23T02:29:49;13.70;99.90
46319;DHT22;32042;50.916;2.926;2022-07-23T02:32:16;13.70;99.90
46319;DHT22;32042;50.916;2.926;2022-07-23T02:34:43;13.70;99.90
46319;DHT22;32042;50.916;2.926;2022-07-23T02:37:09;13.70;99.90
46319;DHT22;32042;50.916;2.926;2022-07-23T02:39:36;13.70;99.90
46319;DHT22;32042;50.916;2.926;2022-07-23T02:42:03;13.70;99.90
46319;DHT22;32042;50.916;2.926;2022-07-23T02:44:30;13.70;99.90
46319;DHT22;32042;50.916;2.926;2022-07-23T02:46:56;13.70;99.90
46319;DHT22;32042;50.916;2.926;2022-07-23T02:49:22;13.70;99.90
46319;DHT22;32042;50.916;2.926;2022-07-23T02:51:50;13.80;99.90
46319;DHT22;32042;50.916;2.926;2022-07-23T02:54:16;13.80;99.90
46319;DHT22;32042;50.916;2.926;2022-07-23T02:56:42;13.90;99.90
46319;DHT22;32042;50.916;2.926;2022-07-23T02:59:07;13.80;99.90
46319;DHT22;32042;50.916;2.926;2022-07-23T03:01:34;13.80;99.90
46319;DHT22;32042;50.916;2.926;2022-07-23T03:03:59;13.90;99.90
46319;DHT22;32042;50.916;2.926;2022-07-23T03:06:25;14.00;99.90
46319;DHT22;32042;50.916;2.926;2022-07-23T03:08:51;14.00;99.90
46319;DHT22;32042;50.916;2.926;2022-07-23T03:11:17;14.00;99.90
46319;DHT22;32042;50.916;2.926;2022-07-23T03:13:42;14.00;99.90
46319;DHT22;32042;50.916;2.926;2022-07-23T03:16:08;14.10;99.90
46319;DHT22;32042;50.916;2.926;2022-07-23T03:18:34;14.10;99.90
46319;DHT22;32042;50.916;2.926;2022-07-23T03:21:00;14.10;99.90
46319;DHT22;32042;50.916;2.926;2022-07-23T03:23:25;14.10;99.90
46319;DHT22;32042;50.916;2.926;2022-07-23T03:25:51;14.20;99.90
46319;DHT22;32042;50.916;2.926;2022-07-23T03:28:18;14.10;99.90
46319;DHT22;32042;50.916;2.926;2022-07-23T03:30:45;14.10;99.90
46319;DHT22;32042;50.916;2.926;2022-07-23T03:33:18;14.10;99.90
46319;DHT22;32042;50.916;2.926;2022-07-23T03:35:45;14.10;99.90
46319;DHT22;32042;50.916;2.926;2022-07-23T03:38:11;14.10;99.90
46319;DHT22;32042;50.916;2.926;2022-07-23T03:40:37;14.20;99.90
46319;DHT22;32042;50.916;2.926;2022-07-23T03:43:02;14.20;99.90
46319;DHT22;32042;50.916;2.926;2022-07-23T03:45:28;14.30;99.90
46319;DHT22;32042;50.916;2.926;2022-07-23T03:47:54;14.30;99.90
46319;DHT22;32042;50.916;2.926;2022-07-23T03:50:20;14.30;99.90
46319;DHT22;32042;50.916;2.926;2022-07-23T03:52:46;14.40;99.90
46319;DHT22;32042;50.916;2.926;2022-07-23T03:55:12;14.30;99.90
46319;DHT22;32042;50.916;2.926;2022-07-23T03:57:37;14.40;99.90
46319;DHT22;32042;50.916;2.926;2022-07-23T04:00:05;14.40;99.90
46319;DHT22;32042;50.916;2.926;2022-07-23T04:02:32;14.40;99.90
46319;DHT22;32042;50.916;2.926;2022-07-23T04:04:58;14.50;99.90
46319;DHT22;32042;50.916;2.926;2022-07-23T04:07:25;14.50;99.90
46319;DHT22;32042;50.916;2.926;2022-07-23T04:09:51;14.40;99.90
46319;DHT22;32042;50.916;2.926;2022-07-23T04:12:16;14.40;99.90
46319;DHT22;32042;50.916;2.926;2022-07-23T04:14:42;14.40;99.90
46319;DHT22;32042;50.916;2.926;2022-07-23T04:17:08;14.30;99.90
46319;DHT22;32042;50.916;2.926;2022-07-23T04:19:34;14.20;99.90
46319;DHT22;32042;50.916;2.926;2022-07-23T04:22:05;14.20;99.90
46319;DHT22;32042;50.916;2.926;2022-07-23T04:24:31;14.30;99.90
46319;DHT22;32042;50.916;2.926;2022-07-23T04:26:57;14.30;99.90
46319;DHT22;32042;50.916;2.926;2022-07-23T04:29:23;14.30;99.90
46319;DHT22;32042;50.916;2.926;2022-07-23T04:31:49;14.30;99.90
46319;DHT22;32042;50.916;2.926;2022-07-23T04:34:15;14.30;99.90
46319;DHT22;32042;50.916;2.926;2022-07-23T04:36:41;14.30;99.90
46319;DHT22;32042;50.916;2.926;2022-07-23T04:39:06;14.30;99.90
46319;DHT22;32042;50.916;2.926;2022-07-23T04:41:32;14.30;99.90
46319;DHT22;32042;50.916;2.926;2022-07-23T04:44:00;14.30;99.90
46319;DHT22;32042;50.916;2.926;2022-07-23T04:46:25;14.40;99.90
46319;DHT22;32042;50.916;2.926;2022-07-23T04:48:51;14.40;99.90
46319;DHT22;32042;50.916;2.926;2022-07-23T04:51:17;14.50;99.90
46319;DHT22;32042;50.916;2.926;2022-07-23T04:53:43;14.50;99.90
46319;DHT22;32042;50.916;2.926;2022-07-23T04:56:08;14.50;99.90
46319;DHT22;32042;50.916;2.926;2022-07-23T04:58:34;14.40;99.90
46319;DHT22;32042;50.916;2.926;2022-07-23T05:01:00;14.50;99.90
46319;DHT22;32042;50.916;2.926;2022-07-23T05:03:26;14.50;99.90
46319;DHT22;32042;50.916;2.926;2022-07-23T05:05:52;14.60;99.90
46319;DHT22;32042;50.916;2.926;2022-07-23T05:08:18;14.60;99.90
46319;DHT22;32042;50.916;2.926;2022-07-23T05:10:44;14.60;99.90
46319;DHT22;32042;50.916;2.926;2022-07-23T05:13:09;14.70;99.90
46319;DHT22;32042;50.916;2.926;2022-07-23T05:15:35;14.80;99.90
46319;DHT22;32042;50.916;2.926;2022-07-23T05:18:01;14.90;99.90
46319;DHT22;32042;50.916;2.926;2022-07-23T05:20:26;14.90;99.90
46319;DHT22;32042;50.916;2.926;2022-07-23T05:22:52;15.00;99.90
46319;DHT22;32042;50.916;2.926;2022-07-23T05:25:18;15.00;99.90
46319;DHT22;32042;50.916;2.926;2022-07-23T05:27:43;15.10;99.90
46319;DHT22;32042;50.916;2.926;2022-07-23T05:30:10;15.10;99.90
46319;DHT22;32042;50.916;2.926;2022-07-23T05:32:35;15.10;99.90
46319;DHT22;32042;50.916;2.926;2022-07-23T05:35:06;15.20;99.90
46319;DHT22;32042;50.916;2.926;2022-07-23T05:37:32;15.40;99.90
46319;DHT22;32042;50.916;2.926;2022-07-23T05:40:05;15.40;99.90
46319;DHT22;32042;50.916;2.926;2022-07-23T05:42:35;15.40;99.90
46319;DHT22;32042;50.916;2.926;2022-07-23T05:45:01;15.40;99.90
46319;DHT22;32042;50.916;2.926;2022-07-23T05:47:28;15.50;99.90
46319;DHT22;32042;50.916;2.926;2022-07-23T05:49:54;15.60;99.90
46319;DHT22;32042;50.916;2.926;2022-07-23T05:52:19;15.70;99.90
46319;DHT22;32042;50.916;2.926;2022-07-23T05:54:45;15.80;99.90
46319;DHT22;32042;50.916;2.926;2022-07-23T05:57:11;15.90;99.90
46319;DHT22;32042;50.916;2.926;2022-07-23T05:59:36;15.90;99.90
46319;DHT22;32042;50.916;2.926;2022-07-23T06:02:02;16.10;99.90
46319;DHT22;32042;50.916;2.926;2022-07-23T06:04:28;16.20;99.90
46319;DHT22;32042;50.916;2.926;2022-07-23T06:06:54;16.30;99.90
46319;DHT22;32042;50.916;2.926;2022-07-23T06:09:19;16.50;99.90
46319;DHT22;32042;50.916;2.926;2022-07-23T06:11:45;16.70;99.90
46319;DHT22;32042;50.916;2.926;2022-07-23T06:14:11;16.80;99.90
46319;DHT22;32042;50.916;2.926;2022-07-23T06:16:36;16.90;99.90
46319;DHT22;32042;50.916;2.926;2022-07-23T06:19:02;17.00;99.90
46319;DHT22;32042;50.916;2.926;2022-07-23T06:21:28;17.10;99.90
46319;DHT22;32042;50.916;2.926;2022-07-23T06:23:53;17.10;99.90
46319;DHT22;32042;50.916;2.926;2022-07-23T06:26:19;17.20;99.90
46319;DHT22;32042;50.916;2.926;2022-07-23T06:28:45;17.30;99.90
46319;DHT22;32042;50.916;2.926;2022-07-23T06:31:10;17.30;99.90
46319;DHT22;32042;50.916;2.926;2022-07-23T06:33:36;17.30;99.90
46319;DHT22;32042;50.916;2.926;2022-07-23T06:36:02;17.40;99.90
46319;DHT22;32042;50.916;2.926;2022-07-23T06:38:27;17.40;99.90
46319;DHT22;32042;50.916;2.926;2022-07-23T06:40:53;17.40;99.90
46319;DHT22;32042;50.916;2.926;2022-07-23T06:43:19;17.50;99.90
46319;DHT22;32042;50.916;2.926;2022-07-23T06:45:44;17.50;99.90
46319;DHT22;32042;50.916;2.926;2022-07-23T06:48:10;17.60;99.90
46319;DHT22;32042;50.916;2.926;2022-07-23T06:50:36;17.60;99.90
46319;DHT22;32042;50.916;2.926;2022-07-23T06:53:01;17.70;99.90
46319;DHT22;32042;50.916;2.926;2022-07-23T06:55:27;17.80;99.90
46319;DHT22;32042;50.916;2.926;2022-07-23T06:57:53;18.00;99.90
46319;DHT22;32042;50.916;2.926;2022-07-23T07:00:19;18.10;99.90
46319;DHT22;32042;50.916;2.926;2022-07-23T07:02:45;18.20;99.90
46319;DHT22;32042;50.916;2.926;2022-07-23T07:05:11;18.30;99.90
46319;DHT22;32042;50.916;2.926;2022-07-23T07:07:37;18.40;99.90
46319;DHT22;32042;50.916;2.926;2022-07-23T07:10:03;18.60;99.90
46319;DHT22;32042;50.916;2.926;2022-07-23T07:12:29;18.60;99.90
46319;DHT22;32042;50.916;2.926;2022-07-23T07:14:55;18.70;99.90
46319;DHT22;32042;50.916;2.926;2022-07-23T07:17:20;18.70;99.90
46319;DHT22;32042;50.916;2.926;2022-07-23T07:19:46;18.70;99.90
46319;DHT22;32042;50.916;2.926;2022-07-23T07:22:12;18.80;99.90
46319;DHT22;32042;50.916;2.926;2022-07-23T07:24:37;18.90;99.90
46319;DHT22;32042;50.916;2.926;2022-07-23T07:27:03;19.00;99.90
46319;DHT22;32042;50.916;2.926;2022-07-23T07:29:29;19.00;99.90
46319;DHT22;32042;50.916;2.926;2022-07-23T07:31:55;19.10;99.90
46319;DHT22;32042;50.916;2.926;2022-07-23T07:34:20;19.00;99.90
46319;DHT22;32042;50.916;2.926;2022-07-23T07:36:46;19.10;99.90
46319;DHT22;32042;50.916;2.926;2022-07-23T07:39:12;19.20;99.90
46319;DHT22;32042;50.916;2.926;2022-07-23T07:41:37;19.30;99.90
46319;DHT22;32042;50.916;2.926;2022-07-23T07:44:03;19.30;99.90
46319;DHT22;32042;50.916;2.926;2022-07-23T07:46:29;19.50;99.90
46319;DHT22;32042;50.916;2.926;2022-07-23T07:48:56;19.70;99.90
46319;DHT22;32042;50.916;2.926;2022-07-23T07:51:21;19.80;99.90
46319;DHT22;32042;50.916;2.926;2022-07-23T07:53:47;19.60;99.90
46319;DHT22;32042;50.916;2.926;2022-07-23T07:56:13;19.90;99.90
46319;DHT22;32042;50.916;2.926;2022-07-23T07:58:38;20.00;99.90
46319;DHT22;32042;50.916;2.926;2022-07-23T08:01:04;20.30;99.90
46319;DHT22;32042;50.916;2.926;2022-07-23T08:03:30;20.70;99.90
46319;DHT22;32042;50.916;2.926;2022-07-23T08:05:56;21.00;99.90
46319;DHT22;32042;50.916;2.926;2022-07-23T08:08:21;21.40;99.90
46319;DHT22;32042;50.916;2.926;2022-07-23T08:10:47;21.70;99.90
46319;DHT22;32042;50.916;2.926;2022-07-23T08:13:14;22.00;99.90
46319;DHT22;32042;50.916;2.926;2022-07-23T08:15:41;22.40;99.90
46319;DHT22;32042;50.916;2.926;2022-07-23T08:18:06;22.60;99.90
46319;DHT22;32042;50.916;2.926;2022-07-23T08:20:32;22.50;99.90
46319;DHT22;32042;50.916;2.926;2022-07-23T08:23:03;22.40;99.90
46319;DHT22;32042;50.916;2.926;2022-07-23T08:25:30;22.30;99.90
46319;DHT22;32042;50.916;2.926;2022-07-23T08:27:58;22.40;99.90
46319;DHT22;32042;50.916;2.926;2022-07-23T08:30:24;22.10;99.90
46319;DHT22;32042;50.916;2.926;2022-07-23T08:32:59;22.00;99.90
46319;DHT22;32042;50.916;2.926;2022-07-23T08:35:33;21.80;99.90
46319;DHT22;32042;50.916;2.926;2022-07-23T08:38:00;21.90;99.90
46319;DHT22;32042;50.916;2.926;2022-07-23T08:40:28;22.20;99.90
46319;DHT22;32042;50.916;2.926;2022-07-23T08:42:54;22.50;99.90
46319;DHT22;32042;50.916;2.926;2022-07-23T08:45:22;22.60;99.90
46319;DHT22;32042;50.916;2.926;2022-07-23T08:47:53;22.20;99.90
46319;DHT22;32042;50.916;2.926;2022-07-23T08:50:20;21.70;99.90
46319;DHT22;32042;50.916;2.926;2022-07-23T08:52:47;21.70;99.90
46319;DHT22;32042;50.916;2.926;2022-07-23T08:55:17;21.90;99.90
46319;DHT22;32042;50.916;2.926;2022-07-23T08:57:49;21.80;99.90
46319;DHT22;32042;50.916;2.926;2022-07-23T09:00:15;21.90;99.90
46319;DHT22;32042;50.916;2.926;2022-07-23T09:02:43;22.20;99.90
46319;DHT22;32042;50.916;2.926;2022-07-23T09:05:10;22.40;99.90
46319;DHT22;32042;50.916;2.926;2022-07-23T09:07:38;22.40;99.90
46319;DHT22;32042;50.916;2.926;2022-07-23T09:10:23;22.40;99.90
46319;DHT22;32042;50.916;2.926;2022-07-23T09:12:48;22.70;99.90
46319;DHT22;32042;50.916;2.926;2022-07-23T09:15:14;22.90;99.90
46319;DHT22;32042;50.916;2.926;2022-07-23T09:17:43;23.20;99.90
46319;DHT22;32042;50.916;2.926;2022-07-23T09:20:11;23.40;99.90
46319;DHT22;32042;50.916;2.926;2022-07-23T09:22:38;23.30;99.90
46319;DHT22;32042;50.916;2.926;2022-07-23T09:30:24;23.80;99.90
46319;DHT22;32042;50.916;2.926;2022-07-23T09:33:13;23.50;99.90
46319;DHT22;32042;50.916;2.926;2022-07-23T09:35:58;23.90;99.90
46319;DHT22;32042;50.916;2.926;2022-07-23T09:38:24;24.10;99.90
46319;DHT22;32042;50.916;2.926;2022-07-23T09:41:11;24.40;99.90
46319;DHT22;32042;50.916;2.926;2022-07-23T09:43:38;24.70;99.90
46319;DHT22;32042;50.916;2.926;2022-07-23T09:46:24;24.90;99.90
46319;DHT22;32042;50.916;2.926;2022-07-23T09:48:55;25.00;99.90
46319;DHT22;32042;50.916;2.926;2022-07-23T09:51:24;25.00;99.90
46319;DHT22;32042;50.916;2.926;2022-07-23T09:53:50;25.00;99.90
46319;DHT22;32042;50.916;2.926;2022-07-23T09:56:16;25.10;99.90
46319;DHT22;32042;50.916;2.926;2022-07-23T09:58:44;24.70;99.90
46319;DHT22;32042;50.916;2.926;2022-07-23T10:01:31;24.50;99.90
46319;DHT22;32042;50.916;2.926;2022-07-23T10:03:58;24.60;99.90
46319;DHT22;32042;50.916;2.926;2022-07-23T10:06:24;24.70;99.90
46319;DHT22;32042;50.916;2.926;2022-07-23T10:08:51;24.80;99.90
46319;DHT22;32042;50.916;2.926;2022-07-23T10:11:19;25.00;99.90
46319;DHT22;32042;50.916;2.926;2022-07-23T10:13:44;25.10;99.90
46319;DHT22;32042;50.916;2.926;2022-07-23T10:16:19;24.90;99.90
46319;DHT22;32042;50.916;2.926;2022-07-23T10:18:46;24.50;99.90
46319;DHT22;32042;50.916;2.926;2022-07-23T10:21:20;24.20;99.90
46319;DHT22;32042;50.916;2.926;2022-07-23T10:30:14;24.70;99.90
46319;DHT22;32042;50.916;2.926;2022-07-23T10:37:43;25.80;99.90
46319;DHT22;32042;50.916;2.926;2022-07-23T10:40:20;25.60;99.90
46319;DHT22;32042;50.916;2.926;2022-07-23T10:42:51;25.40;99.90
46319;DHT22;32042;50.916;2.926;2022-07-23T10:45:30;25.20;99.90
46319;DHT22;32042;50.916;2.926;2022-07-23T10:50:38;25.10;99.90
46319;DHT22;32042;50.916;2.926;2022-07-23T10:58:00;25.80;99.90
46319;DHT22;32042;50.916;2.926;2022-07-23T11:00:27;25.70;99.90
46319;DHT22;32042;50.916;2.926;2022-07-23T11:03:49;25.60;99.90
46319;DHT22;32042;50.916;2.926;2022-07-23T11:05:50;25.60;99.90
46319;DHT22;32042;50.916;2.926;2022-07-23T11:08:19;25.50;99.90
46319;DHT22;32042;50.916;2.926;2022-07-23T11:10:52;25.90;99.90
46319;DHT22;32042;50.916;2.926;2022-07-23T11:24:09;25.40;99.90
46319;DHT22;32042;50.916;2.926;2022-07-23T11:37:02;25.80;99.90
46319;DHT22;32042;50.916;2.926;2022-07-23T11:39:30;25.70;99.90
46319;DHT22;32042;50.916;2.926;2022-07-23T11:41:56;25.50;99.90
46319;DHT22;32042;50.916;2.926;2022-07-23T11:44:31;25.50;99.90
46319;DHT22;32042;50.916;2.926;2022-07-23T11:49:29;25.70;99.90
46319;DHT22;32042;50.916;2.926;2022-07-23T11:52:09;25.70;99.90
46319;DHT22;32042;50.916;2.926;2022-07-23T11:54:37;25.50;99.90
46319;DHT22;32042;50.916;2.926;2022-07-23T11:57:11;25.40;99.90
46319;DHT22;32042;50.916;2.926;2022-07-23T11:59:39;25.40;99.90
46319;DHT22;32042;50.916;2.926;2022-07-23T12:02:06;25.40;99.90
46319;DHT22;32042;50.916;2.926;2022-07-23T12:07:36;25.40;99.90
46319;DHT22;32042;50.916;2.926;2022-07-23T12:10:29;25.50;99.90
46319;DHT22;32042;50.916;2.926;2022-07-23T12:13:03;25.80;99.90
46319;DHT22;32042;50.916;2.926;2022-07-23T12:15:38;25.80;99.90
46319;DHT22;32042;50.916;2.926;2022-07-23T12:18:06;25.70;99.90
46319;DHT22;32042;50.916;2.926;2022-07-23T12:20:35;25.80;99.90
46319;DHT22;32042;50.916;2.926;2022-07-23T12:23:05;25.70;99.90
46319;DHT22;32042;50.916;2.926;2022-07-23T12:25:39;25.70;99.90
46319;DHT22;32042;50.916;2.926;2022-07-23T12:28:07;26.10;99.90
46319;DHT22;32042;50.916;2.926;2022-07-23T12:30:42;26.30;99.90
46319;DHT22;32042;50.916;2.926;2022-07-23T12:33:11;26.40;99.90
46319;DHT22;32042;50.916;2.926;2022-07-23T12:35:40;26.30;99.90
46319;DHT22;32042;50.916;2.926;2022-07-23T12:38:10;26.30;99.90
46319;DHT22;32042;50.916;2.926;2022-07-23T12:40:47;26.50;99.90
46319;DHT22;32042;50.916;2.926;2022-07-23T12:48:35;27.00;99.90
46319;DHT22;32042;50.916;2.926;2022-07-23T12:51:12;27.00;99.90
46319;DHT22;32042;50.916;2.926;2022-07-23T12:54:06;27.20;99.90
46319;DHT22;32042;50.916;2.926;2022-07-23T12:56:44;27.70;99.90
46319;DHT22;32042;50.916;2.926;2022-07-23T12:59:12;28.10;99.90
46319;DHT22;32042;50.916;2.926;2022-07-23T13:01:56;28.10;99.90
46319;DHT22;32042;50.916;2.926;2022-07-23T13:04:26;27.90;99.90
46319;DHT22;32042;50.916;2.926;2022-07-23T13:06:57;27.90;99.90
46319;DHT22;32042;50.916;2.926;2022-07-23T13:09:26;27.80;99.90
46319;DHT22;32042;50.916;2.926;2022-07-23T13:11:54;27.20;99.90
46319;DHT22;32042;50.916;2.926;2022-07-23T13:14:21;27.20;99.90
46319;DHT22;32042;50.916;2.926;2022-07-23T13:16:48;27.40;99.90
46319;DHT22;32042;50.916;2.926;2022-07-23T13:19:14;27.20;99.90
46319;DHT22;32042;50.916;2.926;2022-07-23T13:21:41;26.90;99.90
46319;DHT22;32042;50.916;2.926;2022-07-23T13:24:08;26.60;99.90
46319;DHT22;32042;50.916;2.926;2022-07-23T13:26:35;26.40;99.90
46319;DHT22;32042;50.916;2.926;2022-07-23T13:29:01;26.40;99.90
46319;DHT22;32042;50.916;2.926;2022-07-23T13:31:26;26.30;99.90
46319;DHT22;32042;50.916;2.926;2022-07-23T13:33:52;26.10;99.90
46319;DHT22;32042;50.916;2.926;2022-07-23T13:36:18;26.30;99.90
46319;DHT22;32042;50.916;2.926;2022-07-23T13:38:44;26.70;99.90
46319;DHT22;32042;50.916;2.926;2022-07-23T13:41:09;26.90;99.90
46319;DHT22;32042;50.916;2.926;2022-07-23T13:43:35;27.00;99.90
46319;DHT22;32042;50.916;2.926;2022-07-23T13:46:01;26.90;99.90
46319;DHT22;32042;50.916;2.926;2022-07-23T13:48:26;27.10;99.90
46319;DHT22;32042;50.916;2.926;2022-07-23T13:50:54;27.20;99.90
46319;DHT22;32042;50.916;2.926;2022-07-23T13:53:22;27.40;99.90
46319;DHT22;32042;50.916;2.926;2022-07-23T13:55:50;27.70;99.90
46319;DHT22;32042;50.916;2.926;2022-07-23T13:58:17;27.80;99.90
46319;DHT22;32042;50.916;2.926;2022-07-23T14:00:47;27.20;99.90
46319;DHT22;32042;50.916;2.926;2022-07-23T14:03:13;26.80;99.90
46319;DHT22;32042;50.916;2.926;2022-07-23T14:05:39;26.70;99.90
46319;DHT22;32042;50.916;2.926;2022-07-23T14:08:05;26.70;99.90
46319;DHT22;32042;50.916;2.926;2022-07-23T14:10:31;26.90;99.90
46319;DHT22;32042;50.916;2.926;2022-07-23T14:12:56;26.90;99.90
46319;DHT22;32042;50.916;2.926;2022-07-23T14:15:24;26.90;99.90
46319;DHT22;32042;50.916;2.926;2022-07-23T14:17:49;26.90;99.90
46319;DHT22;32042;50.916;2.926;2022-07-23T14:20:16;27.20;99.90
46319;DHT22;32042;50.916;2.926;2022-07-23T14:22:42;27.20;99.90
46319;DHT22;32042;50.916;2.926;2022-07-23T14:25:09;27.00;99.90
46319;DHT22;32042;50.916;2.926;2022-07-23T14:27:35;26.80;99.90
46319;DHT22;32042;50.916;2.926;2022-07-23T14:30:03;26.90;99.90
46319;DHT22;32042;50.916;2.926;2022-07-23T14:32:29;26.80;99.90
46319;DHT22;32042;50.916;2.926;2022-07-23T14:34:55;27.20;99.90
46319;DHT22;32042;50.916;2.926;2022-07-23T14:37:21;27.40;99.90
46319;DHT22;32042;50.916;2.926;2022-07-23T14:39:46;27.60;99.90
46319;DHT22;32042;50.916;2.926;2022-07-23T14:42:12;27.60;99.90
46319;DHT22;32042;50.916;2.926;2022-07-23T14:44:38;27.40;99.90
46319;DHT22;32042;50.916;2.926;2022-07-23T14:47:04;27.40;99.90
46319;DHT22;32042;50.916;2.926;2022-07-23T14:49:31;27.50;99.90
46319;DHT22;32042;50.916;2.926;2022-07-23T14:51:57;26.90;99.90
46319;DHT22;32042;50.916;2.926;2022-07-23T14:54:24;26.90;99.90
46319;DHT22;32042;50.916;2.926;2022-07-23T14:56:52;27.00;99.90
46319;DHT22;32042;50.916;2.926;2022-07-23T14:59:18;27.00;99.90
46319;DHT22;32042;50.916;2.926;2022-07-23T15:01:44;27.20;99.90
46319;DHT22;32042;50.916;2.926;2022-07-23T15:04:09;27.30;99.90
46319;DHT22;32042;50.916;2.926;2022-07-23T15:06:35;27.00;99.90
46319;DHT22;32042;50.916;2.926;2022-07-23T15:09:01;27.00;99.90
46319;DHT22;32042;50.916;2.926;2022-07-23T15:11:28;27.40;99.90
46319;DHT22;32042;50.916;2.926;2022-07-23T15:13:56;27.60;99.90
46319;DHT22;32042;50.916;2.926;2022-07-23T15:16:22;27.80;99.90
46319;DHT22;32042;50.916;2.926;2022-07-23T15:18:48;28.00;99.90
46319;DHT22;32042;50.916;2.926;2022-07-23T15:21:13;28.20;99.90
46319;DHT22;32042;50.916;2.926;2022-07-23T15:23:39;28.30;99.90
46319;DHT22;32042;50.916;2.926;2022-07-23T15:26:06;28.20;99.90
46319;DHT22;32042;50.916;2.926;2022-07-23T15:28:33;28.10;99.90
46319;DHT22;32042;50.916;2.926;2022-07-23T15:30:59;28.00;99.90
46319;DHT22;32042;50.916;2.926;2022-07-23T15:33:25;27.80;99.90
46319;DHT22;32042;50.916;2.926;2022-07-23T15:35:50;27.70;99.90
46319;DHT22;32042;50.916;2.926;2022-07-23T15:38:18;27.80;99.90
46319;DHT22;32042;50.916;2.926;2022-07-23T15:40:44;27.90;99.90
46319;DHT22;32042;50.916;2.926;2022-07-23T15:43:09;27.80;99.90
46319;DHT22;32042;50.916;2.926;2022-07-23T15:45:35;27.60;99.90
46319;DHT22;32042;50.916;2.926;2022-07-23T15:48:01;27.50;99.90
46319;DHT22;32042;50.916;2.926;2022-07-23T15:50:26;27.60;99.90
46319;DHT22;32042;50.916;2.926;2022-07-23T15:52:52;27.50;99.90
46319;DHT22;32042;50.916;2.926;2022-07-23T15:55:18;27.40;99.90
46319;DHT22;32042;50.916;2.926;2022-07-23T15:57:44;27.40;99.90
46319;DHT22;32042;50.916;2.926;2022-07-23T16:00:10;27.10;99.90
46319;DHT22;32042;50.916;2.926;2022-07-23T16:02:36;26.90;99.90
46319;DHT22;32042;50.916;2.926;2022-07-23T16:05:02;27.00;99.90
46319;DHT22;32042;50.916;2.926;2022-07-23T16:07:47;26.90;99.90
46319;DHT22;32042;50.916;2.926;2022-07-23T16:10:12;26.80;99.90
46319;DHT22;32042;50.916;2.926;2022-07-23T16:12:38;26.70;99.90
46319;DHT22;32042;50.916;2.926;2022-07-23T16:15:05;26.60;99.90
46319;DHT22;32042;50.916;2.926;2022-07-23T16:17:31;26.30;99.90
46319;DHT22;32042;50.916;2.926;2022-07-23T16:19:56;26.40;99.90
46319;DHT22;32042;50.916;2.926;2022-07-23T16:22:22;26.50;99.90
46319;DHT22;32042;50.916;2.926;2022-07-23T16:24:48;26.50;99.90
46319;DHT22;32042;50.916;2.926;2022-07-23T16:27:14;26.50;99.90